Time;durP1;ratioP1;P1;durP2;ratioP2;P2;SDS_P1;SDS_P2;PMS_P1;PMS_P2;Temp;Humidity;BMP_temperature;BMP_pressure;BME280_temperature;BME280_humidity;BME280_pressure;Samples;Min_cycle;Max_cycle;Signal;HPM_P1;HPM_P2
2021/08/06 00:01:34;;;;;;;4.50;0.68;;;;;;;;;;5030586;28;20388;-42
2021/08/06 00:04:00;;;;;;;3.90;0.73;;;;;;;;;;5031539;28;20028;-43
2021/08/06 00:06:27;;;;;;;1.00;0.50;;;;;;;;;;5030943;28;20060;-41
2021/08/06 00:08:53;;;;;;;2.13;0.70;;;;;;;;;;5031907;28;20049;-42
2021/08/06 00:11:19;;;;;;;1.45;0.50;;;;;;;;;;5031555;28;20493;-44
2021/08/06 00:13:44;;;;;;;0.90;0.60;;;;;;;;;;5029622;28;20041;-44
2021/08/06 00:16:10;;;;;;;0.98;0.60;;;;;;;;;;5031514;28;20028;-40
2021/08/06 00:18:35;;;;;;;3.40;0.55;;;;;;;;;;5029161;28;20056;-44
2021/08/06 00:21:00;;;;;;;3.72;0.70;;;;;;;;;;5032225;28;20017;-41
2021/08/06 00:23:26;;;;;;;2.67;0.50;;;;;;;;;;5032615;28;20672;-41
2021/08/06 00:25:51;;;;;;;1.95;0.43;;;;;;;;;;5029575;28;20327;-43
2021/08/06 00:28:16;;;;;;;1.38;0.63;;;;;;;;;;5028565;28;20183;-40
2021/08/06 00:30:42;;;;;;;2.88;0.52;;;;;;;;;;5029548;28;20104;-43
2021/08/06 00:33:07;;;;;;;0.93;0.50;;;;;;;;;;5029499;28;20033;-41
2021/08/06 00:35:32;;;;;;;1.45;0.60;;;;;;;;;;5028750;28;20036;-41
2021/08/06 00:37:58;;;;;;;2.30;0.77;;;;;;;;;;5034623;28;20052;-42
2021/08/06 00:40:24;;;;;;;2.08;0.60;;;;;;;;;;5032625;28;20705;-43
2021/08/06 00:42:51;;;;;;;1.52;0.60;;;;;;;;;;5028756;28;20028;-41
2021/08/06 00:45:17;;;;;;;1.75;0.65;;;;;;;;;;5034453;28;20036;-41
2021/08/06 00:47:42;;;;;;;2.75;0.90;;;;;;;;;;5038802;28;20199;-43
2021/08/06 00:50:09;;;;;;;1.15;0.60;;;;;;;;;;5042119;28;20147;-43
2021/08/06 00:52:35;;;;;;;1.17;0.50;;;;;;;;;;5040120;28;20266;-42
2021/08/06 00:55:00;;;;;;;1.25;0.60;;;;;;;;;;5038319;28;20024;-40
2021/08/06 00:57:26;;;;;;;0.60;0.40;;;;;;;;;;5038966;28;20024;-41
2021/08/06 00:59:51;;;;;;;0.98;0.50;;;;;;;;;;5037672;28;20049;-43
2021/08/06 01:02:23;;;;;;;2.13;0.55;;;;;;;;;;5036144;28;20021;-41
2021/08/06 01:05:09;;;;;;;0.80;0.50;;;;;;;;;;5041667;28;20040;-44
2021/08/06 01:07:37;;;;;;;2.17;0.60;;;;;;;;;;5038734;28;20021;-44
2021/08/06 01:10:06;;;;;;;1.88;0.60;;;;;;;;;;5038721;28;20029;-42
2021/08/06 01:12:51;;;;;;;1.58;0.60;;;;;;;;;;5040116;28;20492;-41
2021/08/06 01:15:18;;;;;;;2.17;0.50;;;;;;;;;;5038074;28;20029;-42
2021/08/06 01:17:45;;;;;;;1.05;0.60;;;;;;;;;;5038277;28;20116;-41
2021/08/06 01:20:15;;;;;;;2.00;0.70;;;;;;;;;;5037792;28;20674;-42
2021/08/06 01:22:50;;;;;;;1.40;0.68;;;;;;;;;;5041078;28;20036;-44
2021/08/06 01:25:16;;;;;;;1.52;0.55;;;;;;;;;;5042281;28;20044;-42
2021/08/06 01:27:45;;;;;;;1.67;0.60;;;;;;;;;;5041072;28;20118;-41
2021/08/06 01:30:11;;;;;;;3.35;1.02;;;;;;;;;;5038570;28;20029;-41
2021/08/06 01:32:37;;;;;;;2.95;0.95;;;;;;;;;;5040189;28;20400;-42
2021/08/06 01:35:04;;;;;;;1.20;0.60;;;;;;;;;;5042636;28;20496;-41
2021/08/06 01:37:30;;;;;;;1.52;0.60;;;;;;;;;;5040555;28;20033;-42
2021/08/06 01:39:56;;;;;;;1.00;0.47;;;;;;;;;;5041742;28;20024;-42
2021/08/06 01:42:32;;;;;;;2.65;0.77;;;;;;;;;;5041660;28;20029;-42
2021/08/06 01:44:57;;;;;;;1.88;0.52;;;;;;;;;;5040773;28;20400;-42
2021/08/06 01:47:38;;;;;;;1.38;0.65;;;;;;;;;;5041120;28;20032;-41
2021/08/06 01:50:10;;;;;;;1.08;0.70;;;;;;;;;;5040815;28;20033;-41
2021/08/06 01:52:42;;;;;;;2.38;0.70;;;;;;;;;;5041041;28;20642;-42
2021/08/06 01:55:09;;;;;;;1.15;0.70;;;;;;;;;;5040512;28;20028;-43
2021/08/06 01:57:36;;;;;;;1.38;0.70;;;;;;;;;;5040181;28;20099;-41
2021/08/06 02:00:03;;;;;;;1.88;0.85;;;;;;;;;;5040911;28;20380;-41
2021/08/06 02:02:29;;;;;;;3.00;0.60;;;;;;;;;;5041527;28;20480;-42
2021/08/06 02:04:54;;;;;;;1.40;0.70;;;;;;;;;;5041313;28;20021;-40
2021/08/06 02:07:21;;;;;;;0.85;0.50;;;;;;;;;;5040650;28;20047;-41
2021/08/06 02:09:46;;;;;;;1.55;0.85;;;;;;;;;;5041522;28;20025;-44
2021/08/06 02:12:12;;;;;;;2.58;0.60;;;;;;;;;;5040842;28;20673;-43
2021/08/06 02:14:38;;;;;;;1.73;0.80;;;;;;;;;;5041852;28;20041;-41
2021/08/06 02:17:04;;;;;;;1.27;0.60;;;;;;;;;;5040868;28;20083;-41
2021/08/06 02:19:31;;;;;;;4.57;0.80;;;;;;;;;;5040548;28;20028;-41
2021/08/06 02:22:00;;;;;;;1.23;0.60;;;;;;;;;;5041343;28;20027;-42
2021/08/06 02:24:28;;;;;;;1.85;0.68;;;;;;;;;;5041089;28;20078;-41
2021/08/06 02:26:55;;;;;;;1.55;0.50;;;;;;;;;;5040293;28;20028;-44
2021/08/06 02:29:26;;;;;;;1.85;0.68;;;;;;;;;;5039385;28;20029;-42
2021/08/06 02:31:52;;;;;;;1.27;0.70;;;;;;;;;;5039967;28;20523;-41
2021/08/06 02:34:18;;;;;;;0.98;0.60;;;;;;;;;;5041618;28;20037;-42
2021/08/06 02:36:47;;;;;;;1.48;0.70;;;;;;;;;;5040767;28;20028;-40
2021/08/06 02:39:39;;;;;;;2.58;0.88;;;;;;;;;;5040566;28;20153;-41
2021/08/06 02:42:05;;;;;;;1.20;0.60;;;;;;;;;;5038032;28;20097;-42
2021/08/06 02:44:34;;;;;;;0.95;0.60;;;;;;;;;;5040967;28;20087;-42
2021/08/06 02:47:00;;;;;;;1.45;0.70;;;;;;;;;;5037501;28;20025;-41
2021/08/06 02:49:31;;;;;;;1.15;0.50;;;;;;;;;;5040039;28;20020;-41
2021/08/06 02:51:56;;;;;;;2.25;0.90;;;;;;;;;;5040537;28;20028;-41
2021/08/06 02:54:22;;;;;;;1.90;0.70;;;;;;;;;;5040650;28;20373;-41
2021/08/06 02:56:47;;;;;;;2.72;0.73;;;;;;;;;;5040926;28;20033;-43
2021/08/06 02:59:12;;;;;;;1.13;0.77;;;;;;;;;;5039340;28;20377;-41
2021/08/06 03:01:38;;;;;;;2.60;0.70;;;;;;;;;;5039730;28;20025;-41
2021/08/06 03:04:03;;;;;;;1.58;0.73;;;;;;;;;;5040786;28;20025;-41
2021/08/06 03:06:28;;;;;;;4.40;0.88;;;;;;;;;;5040469;28;20025;-46
2021/08/06 03:08:54;;;;;;;1.90;0.80;;;;;;;;;;5040053;28;20742;-43
2021/08/06 03:11:19;;;;;;;3.78;0.70;;;;;;;;;;5041112;28;20874;-42
2021/08/06 03:13:44;;;;;;;3.72;0.80;;;;;;;;;;5041372;28;20499;-40
2021/08/06 03:16:09;;;;;;;0.88;0.70;;;;;;;;;;5040786;28;20031;-42
2021/08/06 03:18:35;;;;;;;2.42;0.70;;;;;;;;;;5039729;28;20075;-40
2021/08/06 03:21:01;;;;;;;2.63;0.80;;;;;;;;;;5040670;28;20736;-41
2021/08/06 03:23:26;;;;;;;1.52;0.80;;;;;;;;;;5040416;28;20066;-41
2021/08/06 03:25:51;;;;;;;1.65;0.63;;;;;;;;;;5039450;28;20037;-43
2021/08/06 03:28:17;;;;;;;1.17;0.57;;;;;;;;;;5040028;28;20693;-40
2021/08/06 03:30:42;;;;;;;1.80;0.70;;;;;;;;;;5039841;28;20036;-42
2021/08/06 03:33:07;;;;;;;4.03;0.80;;;;;;;;;;5045011;28;20039;-41
2021/08/06 03:35:33;;;;;;;2.88;1.02;;;;;;;;;;5044261;28;20464;-41
2021/08/06 03:37:58;;;;;;;2.38;0.80;;;;;;;;;;5044281;28;20027;-44
2021/08/06 03:40:23;;;;;;;1.45;0.63;;;;;;;;;;5044695;28;20532;-42
2021/08/06 03:42:49;;;;;;;1.98;0.82;;;;;;;;;;5042960;28;20078;-41
2021/08/06 03:45:14;;;;;;;2.45;0.90;;;;;;;;;;5042072;28;20903;-41
2021/08/06 03:47:39;;;;;;;2.85;0.90;;;;;;;;;;5043726;28;20021;-42
2021/08/06 03:50:07;;;;;;;2.70;0.95;;;;;;;;;;5044478;28;20040;-44
2021/08/06 03:52:32;;;;;;;1.83;0.80;;;;;;;;;;5044627;28;20062;-41
2021/08/06 03:54:57;;;;;;;4.03;0.90;;;;;;;;;;5044268;28;20466;-41
2021/08/06 03:57:23;;;;;;;2.05;0.85;;;;;;;;;;5043896;28;20444;-44
2021/08/06 03:59:48;;;;;;;2.42;0.77;;;;;;;;;;5043369;28;20515;-42
2021/08/06 04:02:13;;;;;;;1.75;0.82;;;;;;;;;;5044180;28;20025;-41
2021/08/06 04:04:39;;;;;;;1.63;0.73;;;;;;;;;;5043956;28;20027;-42
2021/08/06 04:07:04;;;;;;;8.90;1.88;;;;;;;;;;5044031;28;20024;-41
2021/08/06 04:09:29;;;;;;;2.47;0.80;;;;;;;;;;5044500;28;20096;-42
2021/08/06 04:11:55;;;;;;;2.00;0.90;;;;;;;;;;5043360;28;20021;-44
2021/08/06 04:14:20;;;;;;;1.30;0.80;;;;;;;;;;5045213;28;20020;-40
2021/08/06 04:16:47;;;;;;;1.50;0.90;;;;;;;;;;5043800;28;20410;-41
2021/08/06 04:19:12;;;;;;;3.75;0.90;;;;;;;;;;5044375;28;20070;-41
2021/08/06 04:21:38;;;;;;;5.78;0.90;;;;;;;;;;5041609;28;20041;-42
2021/08/06 04:24:03;;;;;;;2.90;0.95;;;;;;;;;;5043039;28;20037;-43
2021/08/06 04:26:28;;;;;;;3.35;0.80;;;;;;;;;;5043068;28;20461;-42
2021/08/06 04:28:54;;;;;;;1.83;0.88;;;;;;;;;;5041047;28;20037;-44
2021/08/06 04:31:19;;;;;;;1.92;0.85;;;;;;;;;;5042126;28;20016;-42
2021/08/06 04:33:44;;;;;;;2.97;0.98;;;;;;;;;;5042127;28;20565;-41
2021/08/06 04:36:10;;;;;;;1.63;0.88;;;;;;;;;;5042219;28;20032;-42
2021/08/06 04:38:35;;;;;;;3.80;1.10;;;;;;;;;;5041600;28;20749;-43
2021/08/06 04:41:01;;;;;;;1.98;0.98;;;;;;;;;;5041033;28;20029;-43
2021/08/06 04:43:26;;;;;;;2.65;0.98;;;;;;;;;;5041353;28;20028;-43
2021/08/06 04:45:51;;;;;;;4.20;1.00;;;;;;;;;;5041605;28;20017;-42
2021/08/06 04:48:21;;;;;;;2.67;1.02;;;;;;;;;;5040962;28;20025;-43
2021/08/06 04:50:47;;;;;;;1.90;1.00;;;;;;;;;;5041250;28;20017;-42
2021/08/06 04:53:13;;;;;;;2.40;1.25;;;;;;;;;;5040109;28;20037;-40
2021/08/06 04:55:38;;;;;;;2.40;0.90;;;;;;;;;;5039885;28;20039;-43
2021/08/06 04:58:03;;;;;;;2.40;1.10;;;;;;;;;;5039879;28;20112;-41
2021/08/06 05:00:29;;;;;;;3.47;0.85;;;;;;;;;;5039861;28;20021;-44
2021/08/06 05:02:55;;;;;;;2.95;0.88;;;;;;;;;;5038742;28;20109;-43
2021/08/06 05:05:20;;;;;;;2.20;1.00;;;;;;;;;;5040981;28;20032;-42
2021/08/06 05:07:53;;;;;;;1.98;1.00;;;;;;;;;;5040722;28;20028;-42
2021/08/06 05:10:21;;;;;;;2.45;1.13;;;;;;;;;;5039510;28;20490;-40
2021/08/06 05:12:46;;;;;;;2.80;0.90;;;;;;;;;;5042588;28;20056;-41
2021/08/06 05:15:12;;;;;;;3.50;1.15;;;;;;;;;;5043650;28;20121;-41
2021/08/06 05:17:37;;;;;;;2.03;1.00;;;;;;;;;;5040283;28;20216;-43
2021/08/06 05:20:04;;;;;;;2.25;1.20;;;;;;;;;;5042149;28;20048;-46
2021/08/06 05:22:30;;;;;;;3.28;1.10;;;;;;;;;;5038885;28;20025;-47
2021/08/06 05:24:55;;;;;;;2.55;1.17;;;;;;;;;;5039909;28;20021;-47
2021/08/06 05:27:20;;;;;;;3.15;1.20;;;;;;;;;;5038368;28;20052;-45
2021/08/06 05:29:46;;;;;;;2.35;1.20;;;;;;;;;;5039592;28;20031;-43
2021/08/06 05:32:11;;;;;;;3.40;1.00;;;;;;;;;;5035729;28;20090;-43
2021/08/06 05:34:36;;;;;;;4.63;1.42;;;;;;;;;;5038948;28;20036;-46
2021/08/06 05:37:02;;;;;;;5.05;1.38;;;;;;;;;;5039152;28;20174;-46
2021/08/06 05:39:27;;;;;;;2.30;1.05;;;;;;;;;;5040535;28;20545;-46
2021/08/06 05:41:52;;;;;;;5.15;1.23;;;;;;;;;;5040509;28;20021;-46
2021/08/06 05:44:18;;;;;;;2.00;1.08;;;;;;;;;;5040014;28;20086;-44
2021/08/06 05:46:43;;;;;;;3.25;1.15;;;;;;;;;;5040086;28;20028;-43
2021/08/06 05:49:08;;;;;;;3.38;1.20;;;;;;;;;;5038420;28;20097;-44
2021/08/06 05:51:34;;;;;;;3.92;1.10;;;;;;;;;;5039650;28;20461;-44
2021/08/06 05:54:01;;;;;;;3.35;1.08;;;;;;;;;;5039069;28;20040;-44
2021/08/06 05:56:27;;;;;;;2.13;0.93;;;;;;;;;;5039934;28;20492;-46
2021/08/06 05:58:52;;;;;;;3.50;1.05;;;;;;;;;;5038798;28;20047;-42
2021/08/06 06:01:18;;;;;;;2.50;1.13;;;;;;;;;;5041007;28;20022;-42
2021/08/06 06:03:43;;;;;;;2.45;1.00;;;;;;;;;;5038802;28;20024;-42
2021/08/06 06:06:08;;;;;;;2.60;1.20;;;;;;;;;;5039051;28;20743;-42
2021/08/06 06:08:34;;;;;;;2.15;1.00;;;;;;;;;;5037736;28;20016;-44
2021/08/06 06:10:59;;;;;;;3.65;1.40;;;;;;;;;;5037992;28;20109;-43
2021/08/06 06:13:25;;;;;;;2.00;0.90;;;;;;;;;;5038084;28;20032;-43
2021/08/06 06:15:50;;;;;;;2.50;1.00;;;;;;;;;;5033773;28;20117;-42
2021/08/06 06:18:15;;;;;;;2.65;0.95;;;;;;;;;;5036939;28;20060;-43
2021/08/06 06:20:41;;;;;;;2.85;0.93;;;;;;;;;;5039061;28;20020;-43
2021/08/06 06:23:06;;;;;;;3.45;1.25;;;;;;;;;;5037450;28;20579;-48
2021/08/06 06:25:32;;;;;;;3.25;1.02;;;;;;;;;;5038852;28;20028;-43
2021/08/06 06:28:00;;;;;;;1.70;0.80;;;;;;;;;;5034592;28;20027;-43
2021/08/06 06:30:28;;;;;;;2.08;1.02;;;;;;;;;;5039565;28;20738;-43
2021/08/06 06:32:55;;;;;;;2.70;1.13;;;;;;;;;;5038941;28;20094;-44
2021/08/06 06:35:21;;;;;;;1.42;0.88;;;;;;;;;;5035334;28;20094;-44
2021/08/06 06:37:47;;;;;;;2.78;1.23;;;;;;;;;;5037719;28;20083;-46
2021/08/06 06:40:13;;;;;;;1.98;0.80;;;;;;;;;;5037486;28;20056;-43
2021/08/06 06:42:38;;;;;;;2.13;0.80;;;;;;;;;;5036611;28;20051;-46
2021/08/06 06:45:04;;;;;;;1.88;0.95;;;;;;;;;;5029992;28;20500;-43
2021/08/06 06:47:37;;;;;;;1.40;0.70;;;;;;;;;;5036693;28;20105;-43
2021/08/06 06:50:04;;;;;;;1.52;0.90;;;;;;;;;;5034354;28;20025;-44
2021/08/06 06:52:29;;;;;;;3.42;0.90;;;;;;;;;;5036829;28;20025;-45
2021/08/06 06:54:55;;;;;;;3.17;1.48;;;;;;;;;;5032826;28;20438;-43
2021/08/06 06:57:20;;;;;;;1.85;0.80;;;;;;;;;;5030783;28;20029;-44
2021/08/06 06:59:45;;;;;;;2.55;0.80;;;;;;;;;;5037271;28;20056;-43
2021/08/06 07:02:10;;;;;;;2.50;0.88;;;;;;;;;;5039367;28;20024;-43
2021/08/06 07:04:36;;;;;;;1.52;0.63;;;;;;;;;;5040988;28;20039;-46
2021/08/06 07:07:01;;;;;;;3.03;0.90;;;;;;;;;;5038995;28;20104;-48
2021/08/06 07:09:26;;;;;;;2.60;0.77;;;;;;;;;;5036019;28;20049;-48
2021/08/06 07:11:52;;;;;;;4.68;1.08;;;;;;;;;;5039728;28;20107;-45
2021/08/06 07:14:17;;;;;;;2.80;0.82;;;;;;;;;;5040594;28;20039;-42
2021/08/06 07:16:42;;;;;;;2.35;0.73;;;;;;;;;;5033324;28;20691;-44
2021/08/06 07:19:08;;;;;;;2.42;0.75;;;;;;;;;;5037888;28;20071;-42
2021/08/06 07:21:33;;;;;;;2.67;0.90;;;;;;;;;;5035532;28;20028;-45
2021/08/06 07:23:58;;;;;;;3.00;0.80;;;;;;;;;;5033874;28;20905;-43
2021/08/06 07:26:24;;;;;;;1.80;0.70;;;;;;;;;;5037299;28;20404;-43
2021/08/06 07:28:49;;;;;;;1.30;0.57;;;;;;;;;;5036620;28;20400;-45
2021/08/06 07:31:15;;;;;;;2.92;0.90;;;;;;;;;;5038336;28;20017;-43
2021/08/06 07:33:40;;;;;;;3.22;0.80;;;;;;;;;;5036111;28;20518;-45
2021/08/06 07:36:05;;;;;;;1.77;0.90;;;;;;;;;;5034586;28;20029;-43
2021/08/06 07:38:31;;;;;;;2.10;0.80;;;;;;;;;;5035695;28;20024;-44
2021/08/06 07:40:56;;;;;;;3.08;0.85;;;;;;;;;;5034144;28;20032;-42
2021/08/06 07:43:22;;;;;;;1.73;0.68;;;;;;;;;;5036873;28;20154;-45
2021/08/06 07:45:47;;;;;;;2.30;0.60;;;;;;;;;;5038190;28;20737;-45
2021/08/06 07:48:14;;;;;;;1.58;0.80;;;;;;;;;;5036859;28;20032;-41
2021/08/06 07:50:41;;;;;;;1.80;0.77;;;;;;;;;;5037112;28;20037;-45
2021/08/06 07:53:07;;;;;;;1.75;0.80;;;;;;;;;;5037100;28;20040;-46
2021/08/06 07:55:32;;;;;;;2.03;0.80;;;;;;;;;;5035826;28;20017;-45
2021/08/06 07:57:57;;;;;;;2.13;0.95;;;;;;;;;;5036950;28;20040;-43
2021/08/06 08:00:23;;;;;;;1.88;0.73;;;;;;;;;;5037136;28;20133;-47
2021/08/06 08:02:50;;;;;;;2.50;0.73;;;;;;;;;;5038465;28;20090;-45
2021/08/06 08:05:15;;;;;;;2.92;0.82;;;;;;;;;;5037291;28;20392;-44
2021/08/06 08:07:41;;;;;;;2.03;0.70;;;;;;;;;;5036786;28;20541;-44
2021/08/06 08:10:07;;;;;;;3.08;0.80;;;;;;;;;;5036285;28;20026;-44
2021/08/06 08:12:32;;;;;;;2.13;0.90;;;;;;;;;;5038205;28;20463;-45
2021/08/06 08:14:57;;;;;;;2.22;0.65;;;;;;;;;;5037703;28;20029;-42
2021/08/06 08:17:23;;;;;;;0.68;0.43;;;;;;;;;;5037431;28;20051;-43
2021/08/06 08:19:48;;;;;;;3.08;0.63;;;;;;;;;;5037688;28;20033;-45
2021/08/06 08:22:14;;;;;;;3.22;0.82;;;;;;;;;;5041314;28;20082;-45
2021/08/06 08:24:40;;;;;;;6.85;1.02;;;;;;;;;;5041219;28;20535;-46
2021/08/06 08:27:05;;;;;;;1.58;0.70;;;;;;;;;;5040307;28;20043;-43
2021/08/06 08:29:31;;;;;;;10.60;0.88;;;;;;;;;;5042273;28;20029;-45
2021/08/06 08:31:57;;;;;;;2.95;0.70;;;;;;;;;;5039408;28;20033;-42
2021/08/06 08:34:23;;;;;;;3.67;0.85;;;;;;;;;;5038363;28;20036;-44
2021/08/06 08:36:49;;;;;;;2.60;0.60;;;;;;;;;;5039037;28;20052;-44
2021/08/06 08:39:14;;;;;;;1.38;0.50;;;;;;;;;;5039823;28;20048;-42
2021/08/06 08:41:39;;;;;;;1.95;0.70;;;;;;;;;;5038589;28;20035;-44
2021/08/06 08:44:05;;;;;;;3.75;0.80;;;;;;;;;;5037543;28;20037;-42
2021/08/06 08:46:31;;;;;;;1.85;0.70;;;;;;;;;;5040295;28;20028;-43
2021/08/06 08:48:58;;;;;;;1.05;0.47;;;;;;;;;;5037843;28;20032;-44
2021/08/06 08:51:26;;;;;;;1.25;0.50;;;;;;;;;;5039345;28;20683;-42
2021/08/06 08:53:52;;;;;;;1.35;0.50;;;;;;;;;;5037595;28;20081;-46
2021/08/06 08:56:18;;;;;;;1.27;0.50;;;;;;;;;;5036067;28;20896;-44
2021/08/06 08:58:43;;;;;;;0.80;0.50;;;;;;;;;;5034423;28;20715;-43
2021/08/06 09:01:09;;;;;;;1.65;0.40;;;;;;;;;;5037664;28;20582;-45
2021/08/06 09:03:39;;;;;;;1.52;0.73;;;;;;;;;;5037939;28;20053;-45
2021/08/06 09:06:06;;;;;;;1.58;0.55;;;;;;;;;;5041140;28;20021;-44
2021/08/06 09:08:31;;;;;;;1.10;0.57;;;;;;;;;;5036494;28;20082;-46
2021/08/06 09:10:57;;;;;;;0.63;0.40;;;;;;;;;;5041454;28;20029;-44
2021/08/06 09:13:24;;;;;;;2.00;0.60;;;;;;;;;;5037409;28;20039;-42
2021/08/06 09:15:53;;;;;;;2.55;0.70;;;;;;;;;;5034976;28;20141;-43
2021/08/06 09:18:38;;;;;;;0.52;0.40;;;;;;;;;;5039539;28;20037;-43
2021/08/06 09:21:19;;;;;;;1.80;0.75;;;;;;;;;;5037556;28;20036;-45
2021/08/06 09:23:59;;;;;;;0.93;0.57;;;;;;;;;;5036643;28;20036;-47
2021/08/06 09:26:28;;;;;;;3.30;0.60;;;;;;;;;;5035603;28;20040;-44
2021/08/06 09:29:04;;;;;;;1.75;0.60;;;;;;;;;;5036328;28;20029;-45
2021/08/06 09:31:31;;;;;;;1.30;0.65;;;;;;;;;;5038066;28;20064;-44
2021/08/06 09:34:20;;;;;;;1.00;0.50;;;;;;;;;;5038304;28;20548;-47
2021/08/06 09:37:07;;;;;;;1.85;0.70;;;;;;;;;;5039303;28;20400;-45
2021/08/06 09:39:45;;;;;;;2.42;0.65;;;;;;;;;;5037284;28;20025;-48
2021/08/06 09:42:24;;;;;;;3.25;0.70;;;;;;;;;;5037366;28;20142;-43
2021/08/06 09:45:09;;;;;;;1.58;0.52;;;;;;;;;;5037733;28;20017;-44
2021/08/06 09:47:36;;;;;;;2.72;0.52;;;;;;;;;;5036464;28;20025;-44
2021/08/06 09:50:09;;;;;;;2.72;0.70;;;;;;;;;;5036735;28;20036;-44
2021/08/06 09:52:38;;;;;;;2.40;0.60;;;;;;;;;;5040076;28;20075;-43
2021/08/06 09:55:06;;;;;;;2.38;0.50;;;;;;;;;;5039200;28;20029;-43
2021/08/06 09:57:32;;;;;;;2.08;0.60;;;;;;;;;;5037580;28;20024;-44
2021/08/06 09:59:59;;;;;;;2.15;0.65;;;;;;;;;;5037353;28;20025;-45
2021/08/06 10:02:25;;;;;;;2.58;0.60;;;;;;;;;;5036169;28;20106;-46
2021/08/06 10:05:06;;;;;;;2.38;0.63;;;;;;;;;;5039569;28;20028;-44
2021/08/06 10:07:53;;;;;;;3.57;0.53;;;;;;;;;;5038233;28;20094;-43
2021/08/06 10:10:20;;;;;;;2.28;0.90;;;;;;;;;;5037812;28;20064;-47
2021/08/06 10:12:47;;;;;;;2.22;0.80;;;;;;;;;;5037928;28;20615;-44
2021/08/06 10:15:15;;;;;;;4.53;0.73;;;;;;;;;;5038509;28;20025;-44
2021/08/06 10:17:41;;;;;;;2.28;0.70;;;;;;;;;;5037737;28;20040;-44
2021/08/06 10:20:10;;;;;;;2.22;1.13;;;;;;;;;;5038237;28;20017;-44
2021/08/06 10:22:36;;;;;;;5.80;0.90;;;;;;;;;;5037103;28;20025;-44
2021/08/06 10:25:06;;;;;;;2.05;0.77;;;;;;;;;;5038437;28;20511;-44
2021/08/06 10:27:33;;;;;;;2.67;0.90;;;;;;;;;;5036847;28;20024;-42
2021/08/06 10:30:01;;;;;;;2.60;0.65;;;;;;;;;;5038543;28;20028;-42
2021/08/06 10:32:28;;;;;;;4.07;0.68;;;;;;;;;;5036937;28;20021;-44
2021/08/06 10:35:05;;;;;;;2.70;0.60;;;;;;;;;;5037501;28;20017;-46
2021/08/06 10:37:49;;;;;;;1.83;0.80;;;;;;;;;;5038346;28;20033;-43
2021/08/06 10:40:33;;;;;;;1.88;0.60;;;;;;;;;;5038790;28;20024;-42
2021/08/06 10:42:59;;;;;;;1.08;0.60;;;;;;;;;;5038925;28;20032;-42
2021/08/06 10:45:51;;;;;;;4.40;0.98;;;;;;;;;;5039438;28;20029;-42
2021/08/06 10:48:39;;;;;;;2.42;0.70;;;;;;;;;;5037390;28;20029;-45
2021/08/06 10:51:29;;;;;;;3.13;0.60;;;;;;;;;;5037358;28;20123;-43
2021/08/06 10:53:54;;;;;;;3.03;0.60;;;;;;;;;;5029213;28;20036;-44
2021/08/06 10:56:21;;;;;;;3.10;0.73;;;;;;;;;;5039010;28;20393;-43
2021/08/06 10:58:50;;;;;;;1.30;0.57;;;;;;;;;;5038134;28;20266;-42
2021/08/06 11:01:27;;;;;;;1.60;0.60;;;;;;;;;;5039188;28;20021;-45
2021/08/06 11:03:57;;;;;;;1.75;0.63;;;;;;;;;;5037077;28;20500;-46
2021/08/06 11:06:33;;;;;;;1.00;0.70;;;;;;;;;;5038862;28;20458;-44
2021/08/06 11:08:58;;;;;;;2.63;0.80;;;;;;;;;;5038187;28;20116;-45
2021/08/06 11:11:47;;;;;;;3.38;0.80;;;;;;;;;;5038669;28;20108;-44
2021/08/06 11:14:29;;;;;;;1.33;0.57;;;;;;;;;;5038648;28;20052;-45
2021/08/06 11:16:59;;;;;;;3.17;0.70;;;;;;;;;;5037525;28;20017;-46
2021/08/06 11:19:35;;;;;;;1.75;0.60;;;;;;;;;;5038822;28;20077;-44
2021/08/06 11:22:04;;;;;;;1.55;0.60;;;;;;;;;;5037878;28;20483;-43
2021/08/06 11:24:38;;;;;;;1.65;0.85;;;;;;;;;;5038011;28;20025;-44
2021/08/06 11:27:03;;;;;;;2.42;0.55;;;;;;;;;;5038181;28;20079;-43
2021/08/06 11:29:29;;;;;;;1.55;0.55;;;;;;;;;;5036799;28;20036;-45
2021/08/06 11:32:00;;;;;;;0.90;0.65;;;;;;;;;;5036324;28;20049;-44
2021/08/06 11:34:25;;;;;;;1.17;0.60;;;;;;;;;;5038052;28;20040;-48
2021/08/06 11:36:59;;;;;;;0.73;0.40;;;;;;;;;;5035628;28;20500;-46
2021/08/06 11:39:25;;;;;;;1.40;0.60;;;;;;;;;;5038923;28;20057;-45
2021/08/06 11:41:53;;;;;;;1.25;0.65;;;;;;;;;;5036888;28;20102;-43
2021/08/06 11:44:19;;;;;;;1.77;0.70;;;;;;;;;;5038960;28;20032;-46
2021/08/06 11:46:50;;;;;;;1.77;0.50;;;;;;;;;;5036556;28;20029;-43
2021/08/06 11:49:16;;;;;;;;;;;;;;;;;;5038625;28;20056;-44
2021/08/06 11:52:00;;;;;;;2.90;0.60;;;;;;;;;;5037878;28;20028;-46
2021/08/06 11:54:26;;;;;;;1.75;0.63;;;;;;;;;;5041578;28;20064;-43
2021/08/06 11:56:58;;;;;;;2.38;0.60;;;;;;;;;;5041842;28;20088;-44
2021/08/06 11:59:23;;;;;;;3.28;0.70;;;;;;;;;;5039541;28;20021;-44
2021/08/06 12:01:50;;;;;;;2.08;0.60;;;;;;;;;;5042376;28;20055;-47
2021/08/06 12:04:26;;;;;;;4.55;0.70;;;;;;;;;;5041879;28;20512;-46
2021/08/06 12:06:52;;;;;;;1.17;0.57;;;;;;;;;;5040990;28;20028;-44
2021/08/06 12:09:17;;;;;;;3.10;0.50;;;;;;;;;;5041722;28;20832;-46
2021/08/06 12:11:45;;;;;;;4.35;0.63;;;;;;;;;;5041747;28;20032;-44
2021/08/06 12:14:10;;;;;;;3.15;0.70;;;;;;;;;;5040806;28;21649;-44
2021/08/06 12:16:41;;;;;;;2.67;0.85;;;;;;;;;;5037073;28;20025;-44
2021/08/06 12:19:07;;;;;;;2.53;0.73;;;;;;;;;;5040884;28;20025;-43
2021/08/06 12:21:36;;;;;;;2.03;0.68;;;;;;;;;;5041304;28;20014;-42
2021/08/06 12:24:25;;;;;;;1.65;0.60;;;;;;;;;;5041906;28;20032;-45
2021/08/06 12:26:56;;;;;;;2.63;0.80;;;;;;;;;;5037374;28;20048;-43
2021/08/06 12:29:28;;;;;;;4.13;0.75;;;;;;;;;;5040036;28;20445;-43
2021/08/06 12:32:11;;;;;;;2.65;0.95;;;;;;;;;;5040821;28;20086;-41
2021/08/06 12:34:48;;;;;;;2.75;0.60;;;;;;;;;;5041186;28;20595;-42
2021/08/06 12:37:16;;;;;;;1.30;0.40;;;;;;;;;;5041625;28;20033;-45
2021/08/06 12:39:48;;;;;;;3.00;0.70;;;;;;;;;;5038516;28;20021;-41
2021/08/06 12:42:35;;;;;;;1.00;0.50;;;;;;;;;;5039642;28;20518;-41
2021/08/06 12:45:16;;;;;;;1.52;0.30;;;;;;;;;;5038194;28;20676;-43
2021/08/06 12:47:53;;;;;;;1.42;0.38;;;;;;;;;;5037767;28;20028;-45
2021/08/06 12:50:21;;;;;;;0.93;0.40;;;;;;;;;;5037901;28;20029;-47
2021/08/06 12:53:00;;;;;;;2.45;0.55;;;;;;;;;;5039119;28;20124;-41
2021/08/06 12:55:26;;;;;;;3.28;0.70;;;;;;;;;;5036835;28;20075;-42
2021/08/06 12:57:54;;;;;;;1.48;0.45;;;;;;;;;;5032041;28;20029;-40
2021/08/06 13:00:24;;;;;;;1.70;0.63;;;;;;;;;;5039407;28;20021;-41
2021/08/06 13:03:00;;;;;;;1.73;0.70;;;;;;;;;;5038218;28;20059;-44
2021/08/06 13:05:26;;;;;;;1.48;0.75;;;;;;;;;;5036500;28;20017;-43
2021/08/06 13:07:52;;;;;;;1.77;0.63;;;;;;;;;;5036489;28;20102;-44
2021/08/06 13:10:29;;;;;;;2.70;0.50;;;;;;;;;;5034527;28;20431;-40
2021/08/06 13:12:55;;;;;;;2.35;0.40;;;;;;;;;;5038420;28;20531;-42
2021/08/06 13:15:22;;;;;;;5.22;0.70;;;;;;;;;;5037248;28;20836;-45
2021/08/06 13:17:48;;;;;;;1.00;0.45;;;;;;;;;;5039931;28;20021;-44
2021/08/06 13:20:14;;;;;;;1.40;0.50;;;;;;;;;;5038382;28;20464;-43
2021/08/06 13:22:41;;;;;;;1.25;0.40;;;;;;;;;;5037223;28;20040;-45
2021/08/06 13:25:08;;;;;;;1.10;0.38;;;;;;;;;;5035398;28;20032;-42
2021/08/06 13:27:33;;;;;;;2.47;0.50;;;;;;;;;;5034599;28;20023;-43
2021/08/06 13:29:58;;;;;;;1.25;0.40;;;;;;;;;;5036751;28;20033;-45
2021/08/06 13:32:24;;;;;;;2.35;0.63;;;;;;;;;;5036677;28;20021;-40
2021/08/06 13:34:49;;;;;;;1.23;0.50;;;;;;;;;;5037151;28;20061;-43
2021/08/06 13:37:15;;;;;;;0.70;0.30;;;;;;;;;;5033919;28;20033;-42
2021/08/06 13:39:40;;;;;;;0.93;0.35;;;;;;;;;;5035898;28;20028;-43
2021/08/06 13:42:06;;;;;;;1.52;0.38;;;;;;;;;;5034648;28;20029;-42
2021/08/06 13:44:31;;;;;;;1.85;0.50;;;;;;;;;;5035173;28;20086;-44
2021/08/06 13:46:57;;;;;;;1.40;0.50;;;;;;;;;;5037528;28;20107;-47
2021/08/06 13:49:22;;;;;;;0.93;0.50;;;;;;;;;;5038427;28;20476;-44
2021/08/06 13:51:48;;;;;;;2.33;0.50;;;;;;;;;;5035478;28;20108;-47
2021/08/06 13:54:14;;;;;;;1.00;0.50;;;;;;;;;;5033123;28;20393;-45
2021/08/06 13:56:39;;;;;;;0.50;0.30;;;;;;;;;;5035434;28;20028;-42
2021/08/06 13:59:04;;;;;;;0.60;0.35;;;;;;;;;;5036832;28;20036;-41
2021/08/06 14:01:30;;;;;;;1.90;0.60;;;;;;;;;;5039443;28;20075;-41
2021/08/06 14:03:55;;;;;;;0.60;0.35;;;;;;;;;;5034155;28;20033;-44
2021/08/06 14:06:20;;;;;;;1.52;0.45;;;;;;;;;;5037806;28;20797;-43
2021/08/06 14:08:46;;;;;;;0.75;0.40;;;;;;;;;;5037824;28;20067;-44
2021/08/06 14:11:11;;;;;;;0.90;0.50;;;;;;;;;;5033072;28;20028;-42
2021/08/06 14:13:37;;;;;;;0.65;0.30;;;;;;;;;;5037942;28;20504;-42
2021/08/06 14:16:04;;;;;;;1.02;0.50;;;;;;;;;;5036632;28;20032;-43
2021/08/06 14:18:30;;;;;;;0.68;0.43;;;;;;;;;;5037979;28;20029;-40
2021/08/06 14:20:56;;;;;;;1.33;0.57;;;;;;;;;;5037227;28;20028;-44
2021/08/06 14:23:23;;;;;;;0.75;0.40;;;;;;;;;;5034883;28;20022;-41
2021/08/06 14:25:49;;;;;;;1.15;0.80;;;;;;;;;;5036427;28;20025;-46
2021/08/06 14:28:15;;;;;;;1.13;0.40;;;;;;;;;;5035785;28;20033;-41
2021/08/06 14:30:40;;;;;;;0.77;0.40;;;;;;;;;;5038397;28;20457;-41
2021/08/06 14:33:06;;;;;;;1.00;0.52;;;;;;;;;;5038906;28;20087;-43
2021/08/06 14:35:31;;;;;;;1.10;0.63;;;;;;;;;;5038609;28;20024;-41
2021/08/06 14:37:56;;;;;;;0.73;0.40;;;;;;;;;;5035396;28;20017;-42
2021/08/06 14:40:22;;;;;;;0.80;0.50;;;;;;;;;;5040012;28;20029;-45
2021/08/06 14:42:47;;;;;;;1.10;0.47;;;;;;;;;;5038237;28;20999;-44
2021/08/06 14:45:12;;;;;;;3.33;0.70;;;;;;;;;;5041151;28;20944;-42
2021/08/06 14:47:38;;;;;;;0.85;0.30;;;;;;;;;;5040095;28;20458;-41